createdAt,value
2018-06-14T00:00:17.300Z,9.30
2018-06-14T00:02:46.177Z,4.40
2018-06-14T00:05:14.973Z,7.53
2018-06-14T00:07:43.675Z,8.83
2018-06-14T00:10:12.931Z,8.03
2018-06-14T00:12:41.774Z,7.10
2018-06-14T00:15:11.142Z,6.80
2018-06-14T00:17:40.735Z,9.50
2018-06-14T00:20:09.539Z,3.73
2018-06-14T00:22:38.102Z,8.03
2018-06-14T00:25:06.576Z,5.53
2018-06-14T00:27:35.218Z,4.10
2018-06-14T00:30:03.732Z,8.90
2018-06-14T00:32:32.241Z,7.37
2018-06-14T00:35:00.938Z,4.43
2018-06-14T00:37:29.644Z,10.47
2018-06-14T00:39:58.120Z,5.63
2018-06-14T00:42:26.830Z,8.03
2018-06-14T00:44:55.480Z,7.10
2018-06-14T00:47:24.519Z,8.03
2018-06-14T00:49:53.094Z,4.23
2018-06-14T00:52:21.582Z,7.83
2018-06-14T00:54:50.477Z,7.13
2018-06-14T00:57:21.997Z,8.83
2018-06-14T00:59:50.730Z,5.67
2018-06-14T01:02:19.328Z,8.17
2018-06-14T01:04:48.054Z,7.37
2018-06-14T01:07:17.371Z,4.63
2018-06-14T01:09:46.626Z,6.50
2018-06-14T01:12:17.413Z,6.10
2018-06-14T01:14:46.601Z,4.60
2018-06-14T01:17:15.166Z,9.33
2018-06-14T01:19:43.653Z,6.33
2018-06-14T01:22:12.896Z,5.97
2018-06-14T01:24:41.915Z,4.17
2018-06-14T01:27:11.519Z,5.00
2018-06-14T01:29:40.369Z,5.07
2018-06-14T01:32:09.154Z,4.77
2018-06-14T01:34:37.985Z,11.90
2018-06-14T01:37:06.695Z,7.73
2018-06-14T01:39:35.819Z,6.20
2018-06-14T01:42:04.581Z,4.90
2018-06-14T01:44:33.386Z,6.07
2018-06-14T01:47:02.187Z,7.13
2018-06-14T01:49:31.189Z,4.57
2018-06-14T01:52:00.424Z,4.43
2018-06-14T01:54:30.038Z,6.80
2018-06-14T01:56:59.168Z,3.83
2018-06-14T01:59:27.958Z,3.20
2018-06-14T02:01:56.794Z,7.03
2018-06-14T02:04:25.878Z,6.40
2018-06-14T02:06:54.870Z,4.70
2018-06-14T02:09:24.009Z,5.77
2018-06-14T02:11:53.137Z,13.87
2018-06-14T02:14:22.067Z,8.23
2018-06-14T02:16:50.952Z,5.90
2018-06-14T02:19:20.435Z,12.17
2018-06-14T02:21:49.433Z,6.80
2018-06-14T02:24:18.132Z,16.10
2018-06-14T02:26:47.077Z,7.60
2018-06-14T02:29:15.822Z,8.83
2018-06-14T02:31:45.101Z,8.60
2018-06-14T02:34:13.914Z,7.47
2018-06-14T02:36:42.871Z,8.30
2018-06-14T02:39:11.349Z,8.13
2018-06-14T02:41:40.245Z,6.10
2018-06-14T02:44:08.719Z,18.57
2018-06-14T02:46:37.242Z,9.17
2018-06-14T02:49:06.290Z,10.90
2018-06-14T02:51:34.749Z,7.43
2018-06-14T02:54:03.242Z,14.53
2018-06-14T02:56:32.373Z,14.60
2018-06-14T02:59:00.906Z,9.80
2018-06-14T03:01:29.972Z,8.40
2018-06-14T03:03:58.449Z,9.63
2018-06-14T03:06:27.483Z,5.97
2018-06-14T03:08:56.536Z,6.57
2018-06-14T03:11:25.341Z,3.43
2018-06-14T03:13:54.247Z,3.70
2018-06-14T03:16:23.312Z,10.00
2018-06-14T03:18:52.606Z,6.60
2018-06-14T03:21:22.159Z,4.87
2018-06-14T03:23:50.737Z,4.97
2018-06-14T03:26:19.222Z,6.20
2018-06-14T03:28:47.669Z,4.07
2018-06-14T03:31:16.572Z,4.40
2018-06-14T03:33:45.059Z,5.97
2018-06-14T03:36:14.054Z,8.00
2018-06-14T03:38:42.929Z,7.10
2018-06-14T03:41:11.909Z,4.40
2018-06-14T03:43:41.110Z,6.37
2018-06-14T03:46:10.149Z,5.90
2018-06-14T03:48:39.009Z,6.67
2018-06-14T03:51:08.037Z,4.23
2018-06-14T03:53:37.147Z,7.50
2018-06-14T03:56:06.311Z,5.07
2018-06-14T03:58:35.070Z,4.60
2018-06-14T04:01:03.635Z,4.57
2018-06-14T04:03:33.102Z,4.50
2018-06-14T04:06:02.195Z,6.00
2018-06-14T04:08:31.058Z,7.60
2018-06-14T04:10:59.530Z,9.13
2018-06-14T04:13:27.990Z,4.17
2018-06-14T04:15:56.441Z,5.20
2018-06-14T04:18:25.621Z,4.63
2018-06-14T04:20:54.317Z,5.57
2018-06-14T04:23:22.781Z,8.80
2018-06-14T04:25:51.634Z,4.87
2018-06-14T04:28:20.134Z,5.80
2018-06-14T04:30:48.597Z,5.63
2018-06-14T04:33:17.061Z,4.20
2018-06-14T04:35:45.552Z,4.53
2018-06-14T04:38:14.283Z,6.37
2018-06-14T04:40:43.833Z,6.10
2018-06-14T04:43:13.795Z,6.43
2018-06-14T04:45:42.822Z,7.33
2018-06-14T04:48:11.605Z,11.20
2018-06-14T04:50:40.822Z,7.73
2018-06-14T04:53:09.738Z,7.40
2018-06-14T04:55:38.164Z,5.70
2018-06-14T04:58:06.698Z,8.13
2018-06-14T05:00:36.034Z,5.80
2018-06-14T05:03:05.302Z,13.07
2018-06-14T05:05:34.374Z,6.47
2018-06-14T05:08:02.986Z,9.40
2018-06-14T05:10:31.455Z,12.20
2018-06-14T05:13:00.200Z,6.00
2018-06-14T05:15:29.243Z,6.30
2018-06-14T05:17:57.704Z,6.30
2018-06-14T05:20:26.356Z,6.47
2018-06-14T05:22:54.942Z,6.10
2018-06-14T05:25:23.426Z,6.17
2018-06-14T05:27:52.435Z,6.83
2018-06-14T05:30:20.998Z,7.90
2018-06-14T05:32:49.735Z,10.10
2018-06-14T05:35:18.632Z,6.17
2018-06-14T05:37:47.105Z,5.23
2018-06-14T05:40:15.594Z,8.87
2018-06-14T05:42:44.155Z,9.00
2018-06-14T05:45:13.270Z,9.37
2018-06-14T05:47:42.548Z,3.97
2018-06-14T05:50:11.642Z,5.57
2018-06-14T05:52:40.399Z,5.33
2018-06-14T05:55:09.071Z,13.00
2018-06-14T05:57:37.764Z,7.23
2018-06-14T06:00:10.129Z,7.37
2018-06-14T06:02:39.102Z,7.47
2018-06-14T06:05:07.569Z,3.87
2018-06-14T06:07:36.275Z,5.93
2018-06-14T06:10:04.798Z,8.53
2018-06-14T06:12:33.857Z,4.80
2018-06-14T06:15:02.445Z,12.70
2018-06-14T06:17:31.125Z,4.83
2018-06-14T06:19:59.605Z,3.77
2018-06-14T06:22:28.676Z,9.37
2018-06-14T06:24:57.258Z,3.37
2018-06-14T06:27:26.008Z,8.10
2018-06-14T06:29:54.836Z,4.30
2018-06-14T06:32:23.585Z,4.67
2018-06-14T06:34:52.069Z,4.73
2018-06-14T06:37:21.244Z,4.13
2018-06-14T06:39:49.835Z,5.27
2018-06-14T06:42:18.618Z,5.77
2018-06-14T06:44:47.319Z,6.53
2018-06-14T06:47:15.923Z,7.33
2018-06-14T06:49:44.779Z,7.00
2018-06-14T06:52:13.508Z,7.03
2018-06-14T06:54:42.509Z,5.90
2018-06-14T06:57:11.274Z,4.87
2018-06-14T06:59:40.335Z,5.43
2018-06-14T07:02:08.965Z,10.27
2018-06-14T07:04:37.449Z,8.20
2018-06-14T07:07:07.430Z,4.10
2018-06-14T07:09:36.677Z,6.97
2018-06-14T07:12:05.713Z,14.30
2018-06-14T07:14:34.851Z,6.23
2018-06-14T07:17:03.833Z,6.23
2018-06-14T07:19:32.511Z,9.53
2018-06-14T07:22:01.134Z,5.23
2018-06-14T07:24:30.181Z,6.27
2018-06-14T07:26:59.122Z,9.30
2018-06-14T07:29:28.523Z,7.40
2018-06-14T07:31:57.442Z,3.93
2018-06-14T07:34:26.623Z,4.20
2018-06-14T07:36:55.838Z,4.70
2018-06-14T07:39:24.931Z,4.17
2018-06-14T07:41:53.743Z,10.03
2018-06-14T07:44:22.361Z,6.17
2018-06-14T07:46:50.845Z,6.30
2018-06-14T07:49:19.524Z,4.40
2018-06-14T07:51:48.461Z,5.00
2018-06-14T07:54:17.546Z,10.93
2018-06-14T07:56:47.037Z,4.50
2018-06-14T07:59:15.822Z,6.07
2018-06-14T08:01:45.051Z,4.77
2018-06-14T08:04:13.589Z,9.03
2018-06-14T08:06:42.074Z,5.30
2018-06-14T08:09:11.298Z,11.90
2018-06-14T08:11:41.207Z,9.47
2018-06-14T08:14:10.601Z,9.13
2018-06-14T08:16:39.378Z,7.73
2018-06-14T08:19:08.238Z,6.40
2018-06-14T08:21:36.926Z,4.03
2018-06-14T08:24:05.533Z,4.60
2018-06-14T08:26:34.578Z,5.37
2018-06-14T08:29:03.178Z,11.83
2018-06-14T08:31:32.615Z,6.40
2018-06-14T08:34:01.412Z,7.63
2018-06-14T08:36:30.958Z,6.27
2018-06-14T08:39:00.018Z,5.60
2018-06-14T08:41:29.526Z,6.27
2018-06-14T08:43:58.619Z,6.27
2018-06-14T08:46:27.579Z,6.47
2018-06-14T08:48:56.277Z,7.57
2018-06-14T08:51:25.359Z,6.17
2018-06-14T08:53:54.897Z,11.30
2018-06-14T08:56:24.413Z,5.07
2018-06-14T08:58:52.974Z,6.97
2018-06-14T09:01:22.019Z,6.90
2018-06-14T09:03:51.107Z,9.87
2018-06-14T09:06:19.642Z,5.50
2018-06-14T09:08:48.710Z,7.50
2018-06-14T09:11:18.167Z,9.17
2018-06-14T09:13:47.396Z,5.60
2018-06-14T09:16:16.410Z,7.00
2018-06-14T09:18:45.408Z,11.90
2018-06-14T09:21:13.881Z,11.17
2018-06-14T09:23:42.396Z,6.03
2018-06-14T09:26:10.865Z,6.47
2018-06-14T09:28:39.354Z,8.87
2018-06-14T09:31:08.151Z,8.90
2018-06-14T09:33:37.562Z,8.47
2018-06-14T09:36:06.156Z,5.90
2018-06-14T09:38:35.454Z,11.60
2018-06-14T09:41:04.855Z,5.67
2018-06-14T09:43:33.625Z,26.83
2018-06-14T09:46:02.676Z,12.00
2018-06-14T09:48:32.076Z,8.13
2018-06-14T09:51:02.147Z,13.97
2018-06-14T09:53:31.188Z,5.77
2018-06-14T09:55:59.959Z,8.03
2018-06-14T09:58:29.085Z,5.10
2018-06-14T10:00:58.262Z,5.20
2018-06-14T10:03:27.050Z,5.70
2018-06-14T10:05:56.230Z,7.97
2018-06-14T10:08:25.511Z,6.00
2018-06-14T10:10:54.263Z,5.23
2018-06-14T10:13:23.407Z,6.07
2018-06-14T10:15:53.225Z,6.70
2018-06-14T10:18:22.389Z,4.93
2018-06-14T10:20:51.304Z,5.20
2018-06-14T10:23:20.134Z,8.27
2018-06-14T10:25:48.670Z,5.17
2018-06-14T10:28:17.799Z,12.13
2018-06-14T10:30:46.670Z,8.30
2018-06-14T10:33:15.558Z,4.13
2018-06-14T10:35:44.310Z,4.93
2018-06-14T10:38:12.892Z,4.40
2018-06-14T10:40:41.559Z,6.07
2018-06-14T10:43:11.615Z,6.00
2018-06-14T10:45:40.403Z,5.83
2018-06-14T10:48:08.965Z,4.37
2018-06-14T10:50:37.441Z,4.87
2018-06-14T10:53:05.912Z,5.40
2018-06-14T10:55:34.739Z,7.43
2018-06-14T10:58:04.078Z,6.47
2018-06-14T11:00:32.929Z,5.77
2018-06-14T11:03:01.717Z,5.17
2018-06-14T11:05:30.513Z,5.40
2018-06-14T11:07:59.402Z,5.77
2018-06-14T11:10:27.849Z,13.53
2018-06-14T11:12:56.555Z,4.70
2018-06-14T11:15:25.695Z,5.20
2018-06-14T11:17:54.446Z,6.03
2018-06-14T11:20:23.624Z,6.97
2018-06-14T11:22:52.372Z,3.80
2018-06-14T11:25:21.164Z,5.70
2018-06-14T11:27:50.942Z,4.00
2018-06-14T11:30:19.923Z,4.23
2018-06-14T11:32:48.762Z,3.57
2018-06-14T11:35:17.233Z,8.70
2018-06-14T11:37:45.955Z,11.23
2018-06-14T11:40:14.522Z,6.90
2018-06-14T11:42:43.341Z,6.00
2018-06-14T11:45:12.442Z,4.07
2018-06-14T11:47:41.020Z,5.37
2018-06-14T11:50:10.074Z,4.77
2018-06-14T11:52:38.697Z,7.07
2018-06-14T11:55:08.423Z,3.40
2018-06-14T11:57:37.001Z,6.10
2018-06-14T12:00:06.311Z,7.00
2018-06-14T12:02:35.607Z,5.27
2018-06-14T12:05:04.073Z,3.33
2018-06-14T12:07:32.558Z,3.27
2018-06-14T12:10:02.174Z,5.20
2018-06-14T12:12:31.230Z,4.53
2018-06-14T12:15:00.332Z,3.27
2018-06-14T12:17:28.953Z,3.30
2018-06-14T12:19:58.372Z,3.33
2018-06-14T12:22:27.582Z,6.03
2018-06-14T12:24:56.373Z,5.93
2018-06-14T12:27:25.182Z,3.70
2018-06-14T12:29:54.286Z,4.53
2018-06-14T12:32:23.083Z,4.20
2018-06-14T12:34:51.678Z,3.00
2018-06-14T12:37:20.600Z,4.37
2018-06-14T12:39:49.318Z,4.80
2018-06-14T12:42:18.285Z,6.30
2018-06-14T12:44:46.961Z,5.40
2018-06-14T12:47:15.406Z,8.33
2018-06-14T12:49:44.187Z,3.83
2018-06-14T12:52:13.091Z,3.23
2018-06-14T12:54:41.947Z,5.67
2018-06-14T12:57:10.668Z,4.43
2018-06-14T12:59:39.453Z,4.33
2018-06-14T13:02:08.674Z,3.00
2018-06-14T13:04:37.738Z,5.43
2018-06-14T13:07:07.288Z,5.03
2018-06-14T13:09:35.850Z,5.20
2018-06-14T13:12:04.338Z,4.43
2018-06-14T13:14:33.738Z,4.23
2018-06-14T13:17:02.940Z,3.90
2018-06-14T13:19:31.934Z,2.83
2018-06-14T13:22:01.440Z,5.17
2018-06-14T13:24:35.488Z,3.27
2018-06-14T13:27:04.034Z,3.27
2018-06-14T13:29:33.684Z,5.07
2018-06-14T13:32:02.326Z,5.23
2018-06-14T13:34:31.671Z,6.40
2018-06-14T13:37:00.145Z,3.70
2018-06-14T13:39:28.676Z,4.20
2018-06-14T13:41:58.092Z,4.40
2018-06-14T13:44:26.762Z,3.30
2018-06-14T13:46:55.327Z,4.17
2018-06-14T13:49:24.237Z,4.57
2018-06-14T13:51:53.553Z,5.43
2018-06-14T13:54:22.243Z,6.73
2018-06-14T13:56:50.817Z,6.13
2018-06-14T13:59:19.298Z,5.60
2018-06-14T14:01:47.797Z,4.13
2018-06-14T14:04:16.281Z,11.93
2018-06-14T14:06:44.746Z,5.47
2018-06-14T14:09:13.451Z,5.10
2018-06-14T14:11:42.145Z,9.60
2018-06-14T14:14:10.850Z,3.17
2018-06-14T14:16:39.720Z,3.57
2018-06-14T14:19:08.285Z,3.30
2018-06-14T14:21:37.391Z,4.90
2018-06-14T14:24:05.956Z,9.30
2018-06-14T14:26:34.414Z,4.07
2018-06-14T14:29:03.184Z,4.80
2018-06-14T14:31:32.119Z,8.77
2018-06-14T14:34:00.641Z,8.10
2018-06-14T14:36:29.081Z,6.10
2018-06-14T14:38:58.230Z,5.90
2018-06-14T14:41:27.595Z,3.63
2018-06-14T14:43:56.598Z,13.60
2018-06-14T14:46:26.076Z,7.43
2018-06-14T14:48:55.582Z,10.77
2018-06-14T14:51:24.158Z,4.30
2018-06-14T14:53:52.841Z,6.43
2018-06-14T14:56:21.638Z,4.07
2018-06-14T14:58:51.077Z,6.20
2018-06-14T15:01:19.522Z,3.50
2018-06-14T15:03:48.978Z,6.87
2018-06-14T15:06:17.762Z,3.97
2018-06-14T15:08:46.540Z,4.60
2018-06-14T15:11:15.365Z,3.70
2018-06-14T15:13:45.023Z,4.90
2018-06-14T15:16:13.913Z,4.17
2018-06-14T15:18:42.595Z,3.13
2018-06-14T15:21:11.422Z,3.90
2018-06-14T15:23:40.080Z,4.70
2018-06-14T15:26:09.067Z,7.67
2018-06-14T15:28:37.868Z,5.07
2018-06-14T15:31:06.512Z,7.50
2018-06-14T15:33:35.611Z,3.73
2018-06-14T15:36:04.433Z,6.17
2018-06-14T15:38:34.058Z,4.50
2018-06-14T15:41:03.158Z,6.17
2018-06-14T15:43:31.668Z,5.60
2018-06-14T15:46:00.128Z,6.23
2018-06-14T15:48:28.691Z,4.70
2018-06-14T15:50:58.462Z,7.23
2018-06-14T15:53:27.046Z,5.70
2018-06-14T15:56:07.942Z,3.93
2018-06-14T15:58:36.643Z,4.13
2018-06-14T16:01:05.634Z,4.83
2018-06-14T16:03:34.754Z,4.37
2018-06-14T16:06:03.666Z,7.50
2018-06-14T16:08:32.566Z,4.73
2018-06-14T16:11:01.432Z,6.17
2018-06-14T16:13:30.121Z,5.27
2018-06-14T16:15:59.205Z,5.83
2018-06-14T16:18:27.982Z,6.53
2018-06-14T16:20:56.997Z,7.00
2018-06-14T16:23:26.288Z,6.40
2018-06-14T16:25:55.887Z,8.37
2018-06-14T16:28:25.134Z,5.90
2018-06-14T16:30:54.118Z,6.80
2018-06-14T16:33:22.580Z,10.10
2018-06-14T16:35:51.706Z,9.63
2018-06-14T16:38:21.379Z,6.97
2018-06-14T16:40:50.470Z,7.87
2018-06-14T16:43:20.248Z,8.77
2018-06-14T16:45:49.598Z,6.90
2018-06-14T16:48:18.366Z,6.53
2018-06-14T16:50:47.366Z,8.07
2018-06-14T16:53:15.989Z,7.37
2018-06-14T16:55:44.425Z,8.60
2018-06-14T16:58:13.282Z,10.23
2018-06-14T17:00:41.992Z,7.30
2018-06-14T17:03:11.139Z,6.70
2018-06-14T17:05:39.916Z,4.80
2018-06-14T17:08:09.520Z,8.80
2018-06-14T17:10:38.399Z,7.83
2018-06-14T17:13:07.439Z,5.50
2018-06-14T17:15:37.029Z,9.90
2018-06-14T17:18:06.111Z,9.50
2018-06-14T17:20:35.357Z,7.23
2018-06-14T17:23:03.937Z,6.30
2018-06-14T17:25:32.374Z,8.13
2018-06-14T17:28:01.603Z,7.70
2018-06-14T17:30:30.306Z,5.40
2018-06-14T17:32:59.405Z,5.10
2018-06-14T17:35:27.981Z,10.10
2018-06-14T17:37:58.966Z,9.30
2018-06-14T17:40:28.066Z,14.10
2018-06-14T17:42:57.070Z,8.93
2018-06-14T17:45:25.541Z,9.70
2018-06-14T17:47:54.942Z,12.57
2018-06-14T17:50:23.854Z,14.13
2018-06-14T17:52:52.670Z,20.63
2018-06-14T17:55:21.206Z,17.43
2018-06-14T17:57:50.117Z,16.17
2018-06-14T18:00:18.861Z,21.70
2018-06-14T18:02:47.338Z,21.90
2018-06-14T18:05:16.532Z,24.13
2018-06-14T18:07:45.254Z,22.37
2018-06-14T18:10:14.214Z,23.27
2018-06-14T18:12:42.702Z,21.60
2018-06-14T18:15:11.653Z,22.57
2018-06-14T18:17:40.474Z,24.20
2018-06-14T18:20:09.823Z,30.43
2018-06-14T18:22:38.755Z,25.07
2018-06-14T18:25:07.626Z,19.43
2018-06-14T18:27:37.254Z,21.73
2018-06-14T18:30:06.394Z,23.00
2018-06-14T18:32:35.331Z,23.40
2018-06-14T18:35:03.797Z,22.77
2018-06-14T18:37:32.322Z,26.00
2018-06-14T18:40:00.806Z,24.00
2018-06-14T18:42:29.734Z,33.00
2018-06-14T18:44:58.385Z,20.00
2018-06-14T18:47:26.897Z,22.93
2018-06-14T18:49:56.565Z,31.90
2018-06-14T18:52:25.655Z,22.63
2018-06-14T18:54:54.209Z,23.33
2018-06-14T18:57:23.288Z,22.87
2018-06-14T18:59:52.338Z,23.53
2018-06-14T19:02:21.527Z,26.33
2018-06-14T19:04:50.391Z,30.87
2018-06-14T19:07:19.186Z,24.20
2018-06-14T19:09:48.602Z,20.87
2018-06-14T19:12:17.854Z,22.37
2018-06-14T19:14:46.920Z,23.80
2018-06-14T19:17:15.665Z,23.20
2018-06-14T19:19:44.962Z,24.07
2018-06-14T19:22:13.670Z,22.23
2018-06-14T19:24:42.647Z,25.77
2018-06-14T19:27:12.546Z,22.47
2018-06-14T19:29:41.641Z,21.20
2018-06-14T19:32:10.518Z,23.33
2018-06-14T19:34:39.673Z,22.73
2018-06-14T19:37:08.458Z,23.97
2018-06-14T19:39:37.703Z,31.17
2018-06-14T19:42:06.835Z,22.23
2018-06-14T19:44:35.958Z,29.13
2018-06-14T19:47:05.007Z,24.60
2018-06-14T19:49:34.911Z,21.83
2018-06-14T19:52:04.114Z,30.13
2018-06-14T19:54:33.304Z,24.53
2018-06-14T19:57:02.769Z,23.93
2018-06-14T19:59:31.863Z,25.50
2018-06-14T20:02:00.650Z,26.10
2018-06-14T20:04:29.489Z,23.67
2018-06-14T20:06:58.290Z,28.37
2018-06-14T20:09:27.945Z,21.63
2018-06-14T20:11:57.125Z,25.63
2018-06-14T20:14:26.240Z,22.93
2018-06-14T20:16:55.571Z,25.13
2018-06-14T20:19:24.702Z,21.27
2018-06-14T20:21:53.548Z,24.27
2018-06-14T20:24:22.065Z,25.57
2018-06-14T20:26:51.999Z,26.97
2018-06-14T20:29:20.776Z,20.47
2018-06-14T20:31:50.246Z,29.90
2018-06-14T20:34:19.136Z,24.37
2018-06-14T20:36:48.759Z,20.20
2018-06-14T20:39:17.563Z,23.70
2018-06-14T20:41:46.681Z,24.50
2018-06-14T20:44:15.791Z,23.20
2018-06-14T20:46:44.958Z,40.83
2018-06-14T20:49:13.754Z,25.67
2018-06-14T20:51:42.635Z,21.13
2018-06-14T20:54:11.711Z,18.27
2018-06-14T20:56:40.920Z,21.87
2018-06-14T20:59:09.775Z,18.87
2018-06-14T21:01:38.737Z,21.23
2018-06-14T21:04:07.446Z,27.73
2018-06-14T21:06:36.405Z,14.87
2018-06-14T21:09:07.865Z,18.10
2018-06-14T21:11:37.024Z,15.90
2018-06-14T21:14:06.243Z,15.37
2018-06-14T21:16:35.852Z,16.47
2018-06-14T21:19:04.787Z,13.90
2018-06-14T21:21:33.950Z,15.60
2018-06-14T21:24:03.869Z,15.53
2018-06-14T21:26:32.784Z,16.83
2018-06-14T21:29:02.562Z,15.30
2018-06-14T21:31:31.569Z,17.07
2018-06-14T21:34:00.807Z,18.90
2018-06-14T21:36:29.550Z,14.33
2018-06-14T21:38:59.035Z,16.77
2018-06-14T21:41:28.379Z,13.93
2018-06-14T21:43:57.322Z,16.53
2018-06-14T21:46:26.107Z,15.87
2018-06-14T21:48:54.955Z,15.20
2018-06-14T21:51:24.122Z,11.70
2018-06-14T21:53:53.902Z,18.17
2018-06-14T21:56:22.833Z,14.77
2018-06-14T21:58:52.195Z,12.50
2018-06-14T22:01:21.370Z,13.47
2018-06-14T22:03:56.098Z,12.20
2018-06-14T22:06:25.064Z,14.73
2018-06-14T22:08:54.311Z,12.83
2018-06-14T22:11:23.160Z,12.53
2018-06-14T22:13:52.334Z,13.20
2018-06-14T22:16:20.945Z,12.23
2018-06-14T22:18:49.426Z,12.90
2018-06-14T22:21:18.173Z,11.93
2018-06-14T22:23:47.438Z,17.53
2018-06-14T22:26:16.566Z,13.43
2018-06-14T22:28:45.890Z,16.20
2018-06-14T22:31:15.030Z,13.90
2018-06-14T22:33:49.676Z,12.23
2018-06-14T22:36:19.334Z,14.80
2018-06-14T22:38:48.462Z,15.90
2018-06-14T22:41:17.291Z,18.90
2018-06-14T22:43:46.105Z,11.60
2018-06-14T22:46:14.715Z,16.70
2018-06-14T22:48:43.433Z,19.83
2018-06-14T22:51:17.128Z,14.80
2018-06-14T22:53:46.239Z,14.23
2018-06-14T22:56:15.114Z,15.33
2018-06-14T22:58:44.106Z,15.10
2018-06-14T23:01:49.871Z,13.97
2018-06-14T23:04:20.575Z,14.33
2018-06-14T23:06:49.326Z,13.43
2018-06-14T23:10:31.614Z,16.13
2018-06-14T23:13:00.415Z,15.20
2018-06-14T23:15:29.792Z,16.00
2018-06-14T23:17:58.797Z,18.10
2018-06-14T23:20:28.971Z,16.53
2018-06-14T23:22:58.438Z,18.73
2018-06-14T23:25:28.338Z,17.70
2018-06-14T23:27:57.493Z,14.83
2018-06-14T23:30:26.597Z,17.13
2018-06-14T23:32:56.118Z,18.33
2018-06-14T23:35:24.946Z,16.27
2018-06-14T23:37:54.150Z,15.73
2018-06-14T23:40:23.187Z,17.37
2018-06-14T23:42:52.493Z,19.23
2018-06-14T23:45:21.627Z,16.30
2018-06-14T23:47:50.546Z,17.50
2018-06-14T23:50:19.449Z,18.40
2018-06-14T23:52:48.590Z,15.00
2018-06-14T23:55:18.208Z,19.33
2018-06-14T23:57:47.421Z,18.47
